createdAt,value
2018-03-07T00:00:18.793Z,52.50
2018-03-07T00:01:18.747Z,52.00
2018-03-07T00:02:18.742Z,46.10
2018-03-07T00:03:18.733Z,51.20
2018-03-07T00:04:18.768Z,49.80
2018-03-07T00:05:18.721Z,50.20
2018-03-07T00:06:18.759Z,53.10
2018-03-07T00:07:18.713Z,42.40
2018-03-07T00:08:18.710Z,49.40
2018-03-07T00:09:18.704Z,46.30
2018-03-07T00:10:18.694Z,47.50
2018-03-07T00:11:18.737Z,52.10
2018-03-07T00:12:18.682Z,53.10
2018-03-07T00:13:18.677Z,49.70
2018-03-07T00:14:18.710Z,54.00
2018-03-07T00:15:18.672Z,48.90
2018-03-07T00:16:18.708Z,40.90
2018-03-07T00:17:18.656Z,45.90
2018-03-07T00:18:18.650Z,50.80
2018-03-07T00:19:18.681Z,50.70
2018-03-07T00:20:18.641Z,50.80
2018-03-07T00:21:19.141Z,48.30
2018-03-07T00:22:19.636Z,55.80
2018-03-07T00:23:18.624Z,51.40
2018-03-07T00:24:18.619Z,53.20
2018-03-07T00:25:18.609Z,51.50
2018-03-07T00:26:18.607Z,50.30
2018-03-07T00:27:18.638Z,50.50
2018-03-07T00:28:18.592Z,52.00
2018-03-07T00:29:18.598Z,51.70
2018-03-07T00:30:18.579Z,51.90
2018-03-07T00:31:18.575Z,54.40
2018-03-07T00:32:18.608Z,53.40
2018-03-07T00:33:18.567Z,51.10
2018-03-07T00:34:18.562Z,49.00
2018-03-07T00:35:18.554Z,51.80
2018-03-07T00:36:18.548Z,46.50
2018-03-07T00:37:18.591Z,55.20
2018-03-07T00:38:18.537Z,51.90
2018-03-07T00:39:18.570Z,54.20
2018-03-07T00:40:18.527Z,53.30
2018-03-07T00:41:18.520Z,47.30
2018-03-07T00:42:18.557Z,53.10
2018-03-07T00:43:18.511Z,51.40
2018-03-07T00:44:18.503Z,55.00
2018-03-07T00:45:18.496Z,55.90
2018-03-07T00:46:18.492Z,52.60
2018-03-07T00:47:18.530Z,53.00
2018-03-07T00:48:18.483Z,57.20
2018-03-07T00:49:18.634Z,54.90
2018-03-07T00:50:18.471Z,54.70
2018-03-07T00:51:18.571Z,53.90
2018-03-07T00:52:18.462Z,48.40
2018-03-07T00:53:18.461Z,48.70
2018-03-07T00:54:18.491Z,53.30
2018-03-07T00:55:18.456Z,54.20
2018-03-07T00:56:18.452Z,53.50
2018-03-07T00:57:18.437Z,55.00
2018-03-07T00:58:18.462Z,46.00
2018-03-07T00:59:18.434Z,52.50
2018-03-07T01:00:18.416Z,52.30
2018-03-07T01:01:18.421Z,51.60
2018-03-07T01:02:18.405Z,52.50
2018-03-07T01:03:18.444Z,54.90
2018-03-07T01:04:18.399Z,51.40
2018-03-07T01:05:19.391Z,46.10
2018-03-07T01:06:18.625Z,42.50
2018-03-07T01:07:18.568Z,47.30
2018-03-07T01:08:19.072Z,47.60
2018-03-07T01:09:18.515Z,53.00
2018-03-07T01:10:18.620Z,57.00
2018-03-07T01:11:18.383Z,51.50
2018-03-07T01:12:18.761Z,54.90
2018-03-07T01:13:19.020Z,53.90
2018-03-07T01:14:18.362Z,53.70
2018-03-07T01:15:18.574Z,51.30
2018-03-07T01:16:18.408Z,50.40
2018-03-07T01:17:18.332Z,52.20
2018-03-07T01:18:18.367Z,53.10
2018-03-07T01:19:18.553Z,54.90
2018-03-07T01:20:18.529Z,54.60
2018-03-07T01:21:19.207Z,55.00
2018-03-07T01:22:18.313Z,51.90
2018-03-07T01:23:18.530Z,50.00
2018-03-07T01:24:18.331Z,50.80
2018-03-07T01:25:18.286Z,51.70
2018-03-07T01:26:19.699Z,48.90
2018-03-07T01:27:18.399Z,53.70
2018-03-07T01:28:18.315Z,49.10
2018-03-07T01:29:18.432Z,48.30
2018-03-07T01:30:18.552Z,43.90
2018-03-07T01:31:18.325Z,50.00
2018-03-07T01:32:18.241Z,47.00
2018-03-07T01:33:18.280Z,50.10
2018-03-07T01:34:18.250Z,46.70
2018-03-07T01:35:18.229Z,53.30
2018-03-07T01:36:18.385Z,54.10
2018-03-07T01:37:18.219Z,53.40
2018-03-07T01:38:18.443Z,48.10
2018-03-07T01:39:18.552Z,50.70
2018-03-07T01:40:18.703Z,48.50
2018-03-07T01:41:19.694Z,52.90
2018-03-07T01:42:18.431Z,50.20
2018-03-07T01:43:18.196Z,50.40
2018-03-07T01:44:18.302Z,51.60
2018-03-07T01:45:18.282Z,52.10
2018-03-07T01:46:18.261Z,50.60
2018-03-07T01:47:18.360Z,49.20
2018-03-07T01:48:18.164Z,53.00
2018-03-07T01:49:18.201Z,52.60
2018-03-07T01:50:18.145Z,49.50
2018-03-07T01:51:18.142Z,46.90
2018-03-07T01:52:18.134Z,49.50
2018-03-07T01:53:18.169Z,46.20
2018-03-07T01:54:18.162Z,51.60
2018-03-07T01:55:18.117Z,49.00
2018-03-07T01:56:18.108Z,51.40
2018-03-07T01:57:18.111Z,50.30
2018-03-07T01:58:18.131Z,51.20
2018-03-07T01:59:18.076Z,48.80
2018-03-07T02:00:18.119Z,46.60
2018-03-07T02:01:18.066Z,48.90
2018-03-07T02:02:18.059Z,49.40
2018-03-07T02:03:18.059Z,50.10
2018-03-07T02:04:18.096Z,49.30
2018-03-07T02:05:18.054Z,50.60
2018-03-07T02:06:18.062Z,48.80
2018-03-07T02:07:18.052Z,47.90
2018-03-07T02:08:18.040Z,50.60
2018-03-07T02:09:18.076Z,48.10
2018-03-07T02:10:18.021Z,47.20
2018-03-07T02:11:18.029Z,48.90
2018-03-07T02:12:18.020Z,48.10
2018-03-07T02:13:18.998Z,48.60
2018-03-07T02:14:18.003Z,49.10
2018-03-07T02:15:18.041Z,49.00
2018-03-07T02:16:17.993Z,50.20
2018-03-07T02:17:18.157Z,49.40
2018-03-07T02:18:17.986Z,46.40
2018-03-07T02:19:17.990Z,47.30
2018-03-07T02:20:18.023Z,47.90
2018-03-07T02:21:17.969Z,47.80
2018-03-07T02:22:17.998Z,48.30
2018-03-07T02:23:17.952Z,46.90
2018-03-07T02:24:17.947Z,46.10
2018-03-07T02:25:17.961Z,46.20
2018-03-07T02:26:17.935Z,43.80
2018-03-07T02:27:17.981Z,43.50
2018-03-07T02:28:17.923Z,45.90
2018-03-07T02:29:17.921Z,46.30
2018-03-07T02:30:17.914Z,47.00
2018-03-07T02:31:17.923Z,44.10
2018-03-07T02:32:17.955Z,44.30
2018-03-07T02:33:17.916Z,45.80
2018-03-07T02:34:17.900Z,44.40
2018-03-07T02:35:17.892Z,45.40
2018-03-07T02:36:17.881Z,43.40
2018-03-07T02:37:17.923Z,45.30
2018-03-07T02:38:17.887Z,43.50
2018-03-07T02:39:17.874Z,44.40
2018-03-07T02:40:17.913Z,47.20
2018-03-07T02:41:17.852Z,44.50
2018-03-07T02:42:17.889Z,45.10
2018-03-07T02:43:18.649Z,47.70
2018-03-07T02:44:17.838Z,44.20
2018-03-07T02:45:17.882Z,42.60
2018-03-07T02:46:17.813Z,41.80
2018-03-07T02:47:17.884Z,41.10
2018-03-07T02:48:17.813Z,41.20
2018-03-07T02:49:17.815Z,40.50
2018-03-07T02:50:17.802Z,40.70
2018-03-07T02:51:17.848Z,38.50
2018-03-07T02:52:17.833Z,38.90
2018-03-07T02:53:17.784Z,40.20
2018-03-07T02:54:17.781Z,39.40
2018-03-07T02:55:17.777Z,39.70
2018-03-07T02:56:17.808Z,41.10
2018-03-07T02:57:17.799Z,39.40
2018-03-07T02:58:17.758Z,38.00
2018-03-07T02:59:17.769Z,36.90
2018-03-07T03:00:17.754Z,38.50
2018-03-07T03:01:17.733Z,38.10
2018-03-07T03:02:17.780Z,39.50
2018-03-07T03:03:17.724Z,39.20
2018-03-07T03:04:17.740Z,37.40
2018-03-07T03:05:17.708Z,39.70
2018-03-07T03:06:17.699Z,38.90
2018-03-07T03:07:17.772Z,40.20
2018-03-07T03:08:17.718Z,38.40
2018-03-07T03:09:17.687Z,30.80
2018-03-07T03:10:17.680Z,38.70
2018-03-07T03:11:17.783Z,40.60
2018-03-07T03:12:17.671Z,40.40
2018-03-07T03:13:17.696Z,38.90
2018-03-07T03:14:17.662Z,38.50
2018-03-07T03:15:17.635Z,38.40
2018-03-07T03:16:17.646Z,34.10
2018-03-07T03:17:17.647Z,38.50
2018-03-07T03:18:18.208Z,41.50
2018-03-07T03:19:17.631Z,40.90
2018-03-07T03:20:17.737Z,38.90
2018-03-07T03:21:17.615Z,39.30
2018-03-07T03:22:17.600Z,42.10
2018-03-07T03:23:17.645Z,36.70
2018-03-07T03:24:17.597Z,38.30
2018-03-07T03:25:17.591Z,36.90
2018-03-07T03:26:17.590Z,32.70
2018-03-07T03:27:17.571Z,39.80
2018-03-07T03:28:17.623Z,49.80
2018-03-07T03:29:17.564Z,43.80
2018-03-07T03:30:17.564Z,42.30
2018-03-07T03:31:17.548Z,42.20
2018-03-07T03:32:17.547Z,41.60
2018-03-07T03:33:17.579Z,42.90
2018-03-07T03:34:17.538Z,40.80
2018-03-07T03:35:17.526Z,37.90
2018-03-07T03:36:17.518Z,37.40
2018-03-07T03:37:17.513Z,40.80
2018-03-07T03:38:17.555Z,37.50
2018-03-07T03:39:17.501Z,37.90
2018-03-07T03:40:17.491Z,39.60
2018-03-07T03:41:17.564Z,39.00
2018-03-07T03:42:17.484Z,37.00
2018-03-07T03:43:17.481Z,38.50
2018-03-07T03:44:17.470Z,36.30
2018-03-07T03:45:17.492Z,37.30
2018-03-07T03:46:17.455Z,34.30
2018-03-07T03:47:17.486Z,38.30
2018-03-07T03:48:17.440Z,35.80
2018-03-07T03:49:17.492Z,37.20
2018-03-07T03:50:17.438Z,31.20
2018-03-07T03:51:17.469Z,38.10
2018-03-07T03:52:18.291Z,41.40
2018-03-07T03:53:17.420Z,41.00
2018-03-07T03:54:17.451Z,40.80
2018-03-07T03:55:17.390Z,38.60
2018-03-07T03:56:17.435Z,39.90
2018-03-07T03:57:17.378Z,37.50
2018-03-07T03:58:17.368Z,39.70
2018-03-07T03:59:17.382Z,37.10
2018-03-07T04:00:17.414Z,37.80
2018-03-07T04:01:17.411Z,38.40
2018-03-07T04:02:17.349Z,41.10
2018-03-07T04:03:17.346Z,41.80
2018-03-07T04:04:17.333Z,43.80
2018-03-07T04:05:17.377Z,40.70
2018-03-07T04:06:17.317Z,39.40
2018-03-07T04:07:17.328Z,41.50
2018-03-07T04:08:17.302Z,39.80
2018-03-07T04:09:17.299Z,43.30
2018-03-07T04:10:17.350Z,42.20
2018-03-07T04:11:17.958Z,41.30
2018-03-07T04:12:17.279Z,39.00
2018-03-07T04:13:17.270Z,36.10
2018-03-07T04:14:17.266Z,34.80
2018-03-07T04:15:17.258Z,33.50
2018-03-07T04:16:17.293Z,33.60
2018-03-07T04:17:17.287Z,34.20
2018-03-07T04:18:17.236Z,32.60
2018-03-07T04:19:17.229Z,32.60
2018-03-07T04:20:17.218Z,31.20
2018-03-07T04:21:17.251Z,30.50
2018-03-07T04:22:17.204Z,31.80
2018-03-07T04:23:17.200Z,31.70
2018-03-07T04:24:17.194Z,31.40
2018-03-07T04:25:17.192Z,31.80
2018-03-07T04:26:17.224Z,33.60
2018-03-07T04:27:17.178Z,32.90
2018-03-07T04:28:17.173Z,32.90
2018-03-07T04:29:17.171Z,35.00
2018-03-07T04:30:17.164Z,33.90
2018-03-07T04:31:17.192Z,32.70
2018-03-07T04:32:17.140Z,32.40
2018-03-07T04:33:17.135Z,30.80
2018-03-07T04:34:17.134Z,33.00
2018-03-07T04:35:17.122Z,36.90
2018-03-07T04:36:17.179Z,36.80
2018-03-07T04:37:17.115Z,38.20
2018-03-07T04:38:17.098Z,35.20
2018-03-07T04:39:17.096Z,33.80
2018-03-07T04:40:17.087Z,30.90
2018-03-07T04:41:17.121Z,31.30
2018-03-07T04:42:17.078Z,30.70
2018-03-07T04:43:17.072Z,31.60
2018-03-07T04:44:17.067Z,31.20
2018-03-07T04:45:17.080Z,33.00
2018-03-07T04:46:17.090Z,32.10
2018-03-07T04:47:17.048Z,30.50
2018-03-07T04:48:17.032Z,33.20
2018-03-07T04:49:17.034Z,32.50
2018-03-07T04:50:17.021Z,33.00
2018-03-07T04:51:17.061Z,32.40
2018-03-07T04:52:17.010Z,36.70
2018-03-07T04:53:17.000Z,34.60
2018-03-07T04:54:16.991Z,36.40
2018-03-07T04:55:16.986Z,36.70
2018-03-07T04:56:17.040Z,36.20
2018-03-07T04:57:16.975Z,36.50
2018-03-07T04:58:16.969Z,37.60
2018-03-07T04:59:16.962Z,38.30
2018-03-07T05:00:16.960Z,36.50
2018-03-07T05:01:16.988Z,34.60
2018-03-07T05:02:16.944Z,34.00
2018-03-07T05:03:16.934Z,36.30
2018-03-07T05:04:16.932Z,45.10
2018-03-07T05:05:16.928Z,95.70
2018-03-07T05:06:16.976Z,85.00
2018-03-07T05:07:16.914Z,63.50
2018-03-07T05:08:16.903Z,39.90
2018-03-07T05:09:16.894Z,36.80
2018-03-07T05:10:16.894Z,38.40
2018-03-07T05:11:16.946Z,37.50
2018-03-07T05:12:16.913Z,38.70
2018-03-07T05:13:16.878Z,40.10
2018-03-07T05:14:16.866Z,44.10
2018-03-07T05:15:16.868Z,43.90
2018-03-07T05:16:16.856Z,42.90
2018-03-07T05:17:16.891Z,44.80
2018-03-07T05:18:16.850Z,39.80
2018-03-07T05:19:16.840Z,35.70
2018-03-07T05:20:16.844Z,37.90
2018-03-07T05:21:16.846Z,35.10
2018-03-07T05:22:16.878Z,32.80
2018-03-07T05:23:16.809Z,32.80
2018-03-07T05:24:16.820Z,32.80
2018-03-07T05:25:16.854Z,31.10
2018-03-07T05:26:16.793Z,32.00
2018-03-07T05:27:16.802Z,30.70
2018-03-07T05:28:16.824Z,30.90
2018-03-07T05:29:16.784Z,33.00
2018-03-07T05:30:16.771Z,31.30
2018-03-07T05:31:16.764Z,31.60
2018-03-07T05:32:17.117Z,31.20
2018-03-07T05:33:16.790Z,31.40
2018-03-07T05:34:16.756Z,31.30
2018-03-07T05:35:16.752Z,32.10
2018-03-07T05:36:16.736Z,31.70
2018-03-07T05:37:16.731Z,31.80
2018-03-07T05:38:16.760Z,32.60
2018-03-07T05:39:16.713Z,33.70
2018-03-07T05:40:16.729Z,33.30
2018-03-07T05:41:16.694Z,33.00
2018-03-07T05:42:16.728Z,35.20
2018-03-07T05:43:16.678Z,35.80
2018-03-07T05:44:16.672Z,37.90
2018-03-07T05:45:16.701Z,41.40
2018-03-07T05:46:16.655Z,43.60
2018-03-07T05:47:16.699Z,42.70
2018-03-07T05:48:16.651Z,45.30
2018-03-07T05:49:16.641Z,45.70
2018-03-07T05:50:16.671Z,47.70
2018-03-07T05:51:16.631Z,41.60
2018-03-07T05:52:16.621Z,39.80
2018-03-07T05:53:16.648Z,39.60
2018-03-07T05:54:16.604Z,39.90
2018-03-07T05:55:16.602Z,41.40
2018-03-07T05:56:16.610Z,39.40
2018-03-07T05:57:16.590Z,38.70
2018-03-07T05:58:16.638Z,41.00
2018-03-07T05:59:16.612Z,37.80
2018-03-07T06:00:16.568Z,35.60
2018-03-07T06:01:16.566Z,34.50
2018-03-07T06:02:16.562Z,33.00
2018-03-07T06:03:16.590Z,34.70
2018-03-07T06:04:16.545Z,36.40
2018-03-07T06:05:16.543Z,34.10
2018-03-07T06:06:16.539Z,34.50
2018-03-07T06:07:16.523Z,35.60
2018-03-07T06:08:16.561Z,33.30
2018-03-07T06:09:16.517Z,36.50
2018-03-07T06:10:16.509Z,36.20
2018-03-07T06:11:16.501Z,36.40
2018-03-07T06:12:16.494Z,36.70
2018-03-07T06:13:16.552Z,35.10
2018-03-07T06:14:16.523Z,37.80
2018-03-07T06:15:16.474Z,38.60
2018-03-07T06:16:16.481Z,41.10
2018-03-07T06:17:16.460Z,39.70
2018-03-07T06:18:16.459Z,39.20
2018-03-07T06:19:16.498Z,40.60
2018-03-07T06:20:16.442Z,39.10
2018-03-07T06:21:16.434Z,38.70
2018-03-07T06:22:16.430Z,35.20
2018-03-07T06:23:16.464Z,36.50
2018-03-07T06:24:16.469Z,35.90
2018-03-07T06:25:16.413Z,37.80
2018-03-07T06:26:16.411Z,37.40
2018-03-07T06:27:16.404Z,36.90
2018-03-07T06:28:16.441Z,36.10
2018-03-07T06:29:16.442Z,36.20
2018-03-07T06:30:16.382Z,37.40
2018-03-07T06:31:16.483Z,38.40
2018-03-07T06:32:16.373Z,38.20
2018-03-07T06:33:16.407Z,38.00
2018-03-07T06:34:16.400Z,37.60
2018-03-07T06:35:16.357Z,37.60
2018-03-07T06:36:16.353Z,38.20
2018-03-07T06:37:16.346Z,38.70
2018-03-07T06:38:16.337Z,37.80
2018-03-07T06:39:16.372Z,37.80
2018-03-07T06:40:16.327Z,39.60
2018-03-07T06:41:16.327Z,39.30
2018-03-07T06:42:16.329Z,39.80
2018-03-07T06:43:16.359Z,40.80
2018-03-07T06:44:16.303Z,38.90
2018-03-07T06:45:16.299Z,39.80
2018-03-07T06:46:16.294Z,40.20
2018-03-07T06:47:16.297Z,38.70
2018-03-07T06:48:16.341Z,38.60
2018-03-07T06:49:16.281Z,39.70
2018-03-07T06:50:16.313Z,39.80
2018-03-07T06:51:16.268Z,38.70
2018-03-07T06:52:16.268Z,37.90
2018-03-07T06:53:16.298Z,36.30
2018-03-07T06:54:16.298Z,37.40
2018-03-07T06:55:16.249Z,36.50
2018-03-07T06:56:16.244Z,38.00
2018-03-07T06:57:16.238Z,38.40
2018-03-07T06:58:16.233Z,36.60
2018-03-07T06:59:16.277Z,37.80
2018-03-07T07:00:16.225Z,36.90
2018-03-07T07:01:16.220Z,36.10
2018-03-07T07:02:16.211Z,36.90
2018-03-07T07:03:16.257Z,36.50
2018-03-07T07:04:16.201Z,37.60
2018-03-07T07:05:16.199Z,36.80
2018-03-07T07:06:16.235Z,39.00
2018-03-07T07:07:16.188Z,39.30
2018-03-07T07:08:16.233Z,41.60
2018-03-07T07:09:16.182Z,42.00
2018-03-07T07:10:16.173Z,40.00
2018-03-07T07:11:16.169Z,35.70
2018-03-07T07:12:16.162Z,36.80
2018-03-07T07:13:16.210Z,36.70
2018-03-07T07:14:16.157Z,36.40
2018-03-07T07:15:16.155Z,37.20
2018-03-07T07:16:16.151Z,34.30
2018-03-07T07:17:16.149Z,35.80
2018-03-07T07:18:16.188Z,34.70
2018-03-07T07:19:16.142Z,35.20
2018-03-07T07:20:16.780Z,36.40
2018-03-07T07:21:16.126Z,33.40
2018-03-07T07:22:16.128Z,34.80
2018-03-07T07:23:16.158Z,36.00
2018-03-07T07:24:16.166Z,36.00
2018-03-07T07:25:16.115Z,35.20
2018-03-07T07:26:16.113Z,36.40
2018-03-07T07:27:16.109Z,36.10
2018-03-07T07:28:16.142Z,37.00
2018-03-07T07:29:16.125Z,37.50
2018-03-07T07:30:16.135Z,35.40
2018-03-07T07:31:16.093Z,35.40
2018-03-07T07:32:16.091Z,35.80
2018-03-07T07:33:16.086Z,36.70
2018-03-07T07:34:16.082Z,34.90
2018-03-07T07:35:16.126Z,36.30
2018-03-07T07:36:16.079Z,35.70
2018-03-07T07:37:16.076Z,36.60
2018-03-07T07:38:16.700Z,36.10
2018-03-07T07:39:16.636Z,36.80
2018-03-07T07:40:16.176Z,36.10
2018-03-07T07:41:16.069Z,37.00
2018-03-07T07:42:16.056Z,36.50
2018-03-07T07:43:16.108Z,37.00
2018-03-07T07:44:16.051Z,37.30
2018-03-07T07:45:16.048Z,38.70
2018-03-07T07:46:16.084Z,37.80
2018-03-07T07:47:16.058Z,38.00
2018-03-07T07:48:16.046Z,38.30
2018-03-07T07:49:16.044Z,38.60
2018-03-07T07:50:16.039Z,39.40
2018-03-07T07:51:16.072Z,38.60
2018-03-07T07:52:16.031Z,40.20
2018-03-07T07:53:16.028Z,47.10
2018-03-07T07:55:16.038Z,44.30
2018-03-07T07:56:16.081Z,38.60
2018-03-07T07:57:16.022Z,40.60
2018-03-07T07:58:16.065Z,43.60
2018-03-07T07:59:16.027Z,40.00
2018-03-07T08:00:16.055Z,39.40
2018-03-07T08:01:16.056Z,39.00
2018-03-07T08:02:16.017Z,40.60
2018-03-07T08:03:16.014Z,40.40
2018-03-07T08:04:16.019Z,39.20
2018-03-07T08:05:16.009Z,44.50
2018-03-07T08:06:16.055Z,43.80
2018-03-07T08:07:16.046Z,51.20
2018-03-07T08:08:16.004Z,57.50
2018-03-07T08:09:16.607Z,51.50
2018-03-07T08:10:15.999Z,79.20
2018-03-07T08:11:16.003Z,51.00
2018-03-07T08:12:16.057Z,68.60
2018-03-07T08:13:16.889Z,43.00
2018-03-07T08:14:15.999Z,43.50
2018-03-07T08:15:16.000Z,39.40
2018-03-07T08:16:15.992Z,42.10
2018-03-07T08:17:16.036Z,46.80
2018-03-07T08:18:16.040Z,40.30
2018-03-07T08:19:15.993Z,54.60
2018-03-07T08:20:16.077Z,69.10
2018-03-07T08:21:15.992Z,55.40
2018-03-07T08:22:16.038Z,49.60
2018-03-07T08:23:15.986Z,51.60
2018-03-07T08:24:15.989Z,47.10
2018-03-07T08:25:15.984Z,46.60
2018-03-07T08:26:15.987Z,43.50
2018-03-07T08:27:16.029Z,41.40
2018-03-07T08:28:16.045Z,43.70
2018-03-07T08:29:15.993Z,41.70
2018-03-07T08:30:15.991Z,42.30
2018-03-07T08:31:16.001Z,40.60
2018-03-07T08:32:16.031Z,42.70
2018-03-07T08:33:16.040Z,41.00
2018-03-07T08:34:15.996Z,40.70
2018-03-07T08:35:16.910Z,42.00
2018-03-07T08:36:16.005Z,40.70
2018-03-07T08:37:15.998Z,36.90
2018-03-07T08:38:16.040Z,35.50
2018-03-07T08:39:16.005Z,35.20
2018-03-07T08:40:16.156Z,35.10
2018-03-07T08:41:16.005Z,37.00
2018-03-07T08:42:16.008Z,39.10
2018-03-07T08:43:16.050Z,38.00
2018-03-07T08:44:16.011Z,37.30
2018-03-07T08:45:16.015Z,40.50
2018-03-07T08:46:16.017Z,36.80
2018-03-07T08:47:16.015Z,37.70
2018-03-07T08:48:16.023Z,39.80
2018-03-07T08:49:16.059Z,37.90
2018-03-07T08:50:16.021Z,38.90
2018-03-07T08:51:16.031Z,39.50
2018-03-07T08:52:16.029Z,39.70
2018-03-07T08:53:16.026Z,38.60
2018-03-07T08:54:16.067Z,39.80
2018-03-07T08:55:16.031Z,40.30
2018-03-07T08:56:16.035Z,40.70
2018-03-07T08:57:16.034Z,40.70
2018-03-07T08:58:16.033Z,39.90
2018-03-07T08:59:16.072Z,40.10
2018-03-07T09:00:16.524Z,40.80
2018-03-07T09:01:16.035Z,40.90
2018-03-07T09:02:16.037Z,41.70
2018-03-07T09:03:16.042Z,44.90
2018-03-07T09:04:16.078Z,41.40
2018-03-07T09:05:16.040Z,41.30
2018-03-07T09:06:16.043Z,42.00
2018-03-07T09:07:16.044Z,41.00
2018-03-07T09:08:16.046Z,43.90
2018-03-07T09:09:16.082Z,43.30
2018-03-07T09:10:16.086Z,43.90
2018-03-07T09:11:16.044Z,42.80
2018-03-07T09:12:16.044Z,42.50
2018-03-07T09:13:16.044Z,40.90
2018-03-07T09:14:16.094Z,41.30
2018-03-07T09:15:16.047Z,40.90
2018-03-07T09:16:16.043Z,40.80
2018-03-07T09:17:16.042Z,40.50
2018-03-07T09:18:16.046Z,40.20
2018-03-07T09:19:16.085Z,40.10
2018-03-07T09:20:16.094Z,39.60
2018-03-07T09:21:16.041Z,39.50
2018-03-07T09:22:16.047Z,40.40
2018-03-07T09:23:16.095Z,40.60
2018-03-07T09:24:16.046Z,38.20
2018-03-07T09:25:16.049Z,40.00
2018-03-07T09:26:16.042Z,40.50
2018-03-07T09:27:16.045Z,38.70
2018-03-07T09:28:16.084Z,39.90
2018-03-07T09:29:16.440Z,39.60
2018-03-07T09:30:16.085Z,34.80
2018-03-07T09:31:16.047Z,37.90
2018-03-07T09:32:16.046Z,40.30
2018-03-07T09:33:16.876Z,43.00
2018-03-07T09:34:16.044Z,41.20
2018-03-07T09:35:16.091Z,41.00
2018-03-07T09:36:16.048Z,39.90
2018-03-07T09:37:16.043Z,39.60
2018-03-07T09:38:16.090Z,41.00
2018-03-07T09:39:16.043Z,37.20
2018-03-07T09:40:16.091Z,44.00
2018-03-07T09:41:16.041Z,44.60
2018-03-07T09:42:16.078Z,43.80
2018-03-07T09:43:16.040Z,43.00
2018-03-07T09:44:16.039Z,41.20
2018-03-07T09:45:16.075Z,40.20
2018-03-07T09:46:16.041Z,40.30
2018-03-07T09:47:16.038Z,35.40
2018-03-07T09:48:16.036Z,36.10
2018-03-07T09:49:16.035Z,34.60
2018-03-07T09:50:16.083Z,36.30
2018-03-07T09:51:16.030Z,37.90
2018-03-07T09:52:16.071Z,37.20
2018-03-07T09:53:16.030Z,34.30
2018-03-07T09:54:16.029Z,35.20
2018-03-07T09:55:16.037Z,32.50
2018-03-07T09:56:16.127Z,30.60
2018-03-07T09:57:16.023Z,31.10
2018-03-07T09:58:16.024Z,30.40
2018-03-07T09:59:16.067Z,27.30
2018-03-07T10:00:16.020Z,32.20
2018-03-07T10:01:16.058Z,33.80
2018-03-07T10:02:16.017Z,34.00
2018-03-07T10:03:16.017Z,31.20
2018-03-07T10:04:16.017Z,28.60
2018-03-07T10:05:16.062Z,29.80
2018-03-07T10:06:16.011Z,25.50
2018-03-07T10:07:16.008Z,27.80
2018-03-07T10:08:16.048Z,29.60
2018-03-07T10:09:16.004Z,23.90
2018-03-07T10:10:16.003Z,26.50
2018-03-07T10:11:16.039Z,20.70
2018-03-07T10:12:15.999Z,24.90
2018-03-07T10:13:15.996Z,23.00
2018-03-07T10:14:15.995Z,22.10
2018-03-07T10:15:15.994Z,22.40
2018-03-07T10:16:16.033Z,22.10
2018-03-07T10:17:15.989Z,20.00
2018-03-07T10:18:15.987Z,21.80
2018-03-07T10:19:15.987Z,23.10
2018-03-07T10:20:15.987Z,22.90
2018-03-07T10:21:16.032Z,22.20
2018-03-07T10:22:15.978Z,19.10
2018-03-07T10:23:16.014Z,24.00
2018-03-07T10:24:15.972Z,18.70
2018-03-07T10:25:15.971Z,20.10
2018-03-07T10:26:16.191Z,22.80
2018-03-07T10:27:16.006Z,21.30
2018-03-07T10:28:15.964Z,20.60
2018-03-07T10:29:15.963Z,20.40
2018-03-07T10:30:15.964Z,21.70
2018-03-07T10:31:16.010Z,19.10
2018-03-07T10:32:15.958Z,20.10
2018-03-07T10:33:15.992Z,16.40
2018-03-07T10:34:15.974Z,20.80
2018-03-07T10:35:15.953Z,20.80
2018-03-07T10:36:15.949Z,23.30
2018-03-07T10:37:15.998Z,21.10
2018-03-07T10:38:15.946Z,22.40
2018-03-07T10:39:15.942Z,19.30
2018-03-07T10:40:15.939Z,23.40
2018-03-07T10:41:15.939Z,19.60
2018-03-07T10:42:15.984Z,24.70
2018-03-07T10:43:15.932Z,24.20
2018-03-07T10:44:15.935Z,22.30
2018-03-07T10:45:15.927Z,22.20
2018-03-07T10:46:15.924Z,22.10
2018-03-07T10:47:15.962Z,19.10
2018-03-07T10:48:15.920Z,20.60
2018-03-07T10:49:15.920Z,23.60
2018-03-07T10:50:15.918Z,20.20
2018-03-07T10:51:15.915Z,21.70
2018-03-07T10:52:16.001Z,17.70
2018-03-07T10:53:15.911Z,19.00
2018-03-07T10:54:15.913Z,16.90
2018-03-07T10:55:16.457Z,15.90
2018-03-07T10:56:15.905Z,22.00
2018-03-07T10:57:15.954Z,20.10
2018-03-07T10:58:15.899Z,21.90
2018-03-07T10:59:15.896Z,21.10
2018-03-07T11:00:15.902Z,19.60
2018-03-07T11:01:15.891Z,17.40
2018-03-07T11:02:15.942Z,16.70
2018-03-07T11:03:15.889Z,17.70
2018-03-07T11:04:15.885Z,14.90
2018-03-07T11:05:15.884Z,14.40
2018-03-07T11:06:15.886Z,13.10
2018-03-07T11:07:15.926Z,12.30
2018-03-07T11:08:15.933Z,10.90
2018-03-07T11:09:15.885Z,11.50
2018-03-07T11:10:15.895Z,11.70
2018-03-07T11:11:15.890Z,9.80
2018-03-07T11:12:15.891Z,12.30
2018-03-07T11:13:15.937Z,12.00
2018-03-07T11:14:15.902Z,11.10
2018-03-07T11:15:15.908Z,9.50
2018-03-07T11:16:15.911Z,11.20
2018-03-07T11:17:15.919Z,11.80
2018-03-07T11:18:15.961Z,10.90
2018-03-07T11:19:15.927Z,12.30
2018-03-07T11:20:15.935Z,10.30
2018-03-07T11:21:15.945Z,11.20
2018-03-07T11:22:15.943Z,11.30
2018-03-07T11:23:15.987Z,11.90
2018-03-07T11:24:15.952Z,13.80
2018-03-07T11:25:16.917Z,11.90
2018-03-07T11:26:15.960Z,11.40
2018-03-07T11:27:15.967Z,13.20
2018-03-07T11:28:16.019Z,12.50
2018-03-07T11:29:15.974Z,15.30
2018-03-07T11:30:15.975Z,13.50
2018-03-07T11:31:15.975Z,14.50
2018-03-07T11:32:15.980Z,15.40
2018-03-07T11:33:16.034Z,16.30
2018-03-07T11:34:15.985Z,16.40
2018-03-07T11:35:15.988Z,19.70
2018-03-07T11:36:15.992Z,17.70
2018-03-07T11:37:15.991Z,17.40
2018-03-07T11:38:16.034Z,15.70
2018-03-07T11:39:16.000Z,14.70
2018-03-07T11:40:16.043Z,13.40
2018-03-07T11:41:16.004Z,12.70
2018-03-07T11:42:16.007Z,13.70
2018-03-07T11:43:16.014Z,14.30
2018-03-07T11:44:16.013Z,13.50
2018-03-07T11:45:16.056Z,14.80
2018-03-07T11:46:16.022Z,13.00
2018-03-07T11:47:16.025Z,12.70
2018-03-07T11:48:16.029Z,14.90
2018-03-07T11:49:16.034Z,14.10
2018-03-07T11:50:16.073Z,13.80
2018-03-07T11:51:16.907Z,13.90
2018-03-07T11:52:16.038Z,14.10
2018-03-07T11:53:16.041Z,15.70
2018-03-07T11:54:16.046Z,13.30
2018-03-07T11:55:16.097Z,13.80
2018-03-07T11:56:16.052Z,15.10
2018-03-07T11:57:16.055Z,14.30
2018-03-07T11:58:16.111Z,13.00
2018-03-07T11:59:16.063Z,13.30
2018-03-07T12:00:16.065Z,12.70
2018-03-07T12:01:16.070Z,11.90
2018-03-07T12:02:16.116Z,11.80
2018-03-07T12:03:16.082Z,12.10
2018-03-07T12:04:16.091Z,13.50
2018-03-07T12:05:16.142Z,13.20
2018-03-07T12:06:16.105Z,14.20
2018-03-07T12:07:16.115Z,13.10
2018-03-07T12:08:16.126Z,13.80
2018-03-07T12:09:16.134Z,13.30
2018-03-07T12:10:16.183Z,15.10
2018-03-07T12:11:16.155Z,15.60
2018-03-07T12:12:16.162Z,14.50
2018-03-07T12:13:16.171Z,13.90
2018-03-07T12:14:16.187Z,12.90
2018-03-07T12:15:16.232Z,13.90
2018-03-07T12:16:16.203Z,14.90
2018-03-07T12:17:16.212Z,14.50
2018-03-07T12:18:16.223Z,14.80
2018-03-07T12:19:16.241Z,14.30
2018-03-07T12:20:16.293Z,13.60
2018-03-07T12:21:16.670Z,14.30
2018-03-07T12:22:16.307Z,15.20
2018-03-07T12:23:16.278Z,13.90
2018-03-07T12:24:16.288Z,13.90
2018-03-07T12:25:16.299Z,11.70
2018-03-07T12:26:16.362Z,12.10
2018-03-07T12:27:16.361Z,12.70
2018-03-07T12:28:16.334Z,13.00
2018-03-07T12:29:16.343Z,14.00
2018-03-07T12:30:16.356Z,17.50
2018-03-07T12:31:16.406Z,16.40
2018-03-07T12:32:16.384Z,15.10
2018-03-07T12:33:16.390Z,15.00
2018-03-07T12:34:16.421Z,15.20
2018-03-07T12:35:16.468Z,15.30
2018-03-07T12:36:16.432Z,17.00
2018-03-07T12:37:16.492Z,24.80
2018-03-07T12:38:16.456Z,16.70
2018-03-07T12:39:16.465Z,15.70
2018-03-07T12:40:16.584Z,15.60
2018-03-07T12:41:16.490Z,15.60
2018-03-07T12:42:16.541Z,15.50
2018-03-07T12:43:16.516Z,15.30
2018-03-07T12:44:16.524Z,15.90
2018-03-07T12:45:16.586Z,14.50
2018-03-07T12:46:16.544Z,14.80
2018-03-07T12:47:16.590Z,15.90
2018-03-07T12:48:16.563Z,16.10
2018-03-07T12:49:16.570Z,14.90
2018-03-07T12:50:16.578Z,14.60
2018-03-07T12:51:16.629Z,14.90
2018-03-07T12:52:16.598Z,16.10
2018-03-07T12:53:16.633Z,15.60